Time;durP1;ratioP1;P1;durP2;ratioP2;P2;SDS_P1;SDS_P2;PMS_P1;PMS_P2;Temp;Humidity;BMP_temperature;BMP_pressure;BME280_temperature;BME280_humidity;BME280_pressure;Samples;Min_cycle;Max_cycle;Signal;HPM_P1;HPM_P2
2023/07/22 00:00:22;;;;;;;5.93;4.53;;;14.30;85.00;;;;;;4747425;30;20607;-76
2023/07/22 00:02:49;;;;;;;9.70;4.60;;;14.30;85.30;;;;;;4749892;30;20172;-76
2023/07/22 00:05:15;;;;;;;7.33;3.90;;;14.20;85.60;;;;;;4758902;30;20508;-77
2023/07/22 00:07:41;;;;;;;5.37;4.40;;;14.20;86.00;;;;;;4769955;30;20434;-77
2023/07/22 00:10:08;;;;;;;7.83;4.40;;;14.20;86.40;;;;;;4748512;30;20213;-76
2023/07/22 00:12:34;;;;;;;5.53;3.97;;;14.20;86.90;;;;;;4741713;30;20542;-75
2023/07/22 00:15:00;;;;;;;5.00;4.00;;;14.10;88.10;;;;;;4746954;30;20435;-75
2023/07/22 00:17:26;;;;;;;5.30;3.93;;;14.10;88.30;;;;;;4726167;30;20439;-76
2023/07/22 00:19:52;;;;;;;4.43;3.60;;;14.10;89.00;;;;;;4716328;30;20214;-75
2023/07/22 00:22:18;;;;;;;4.10;3.53;;;14.10;89.40;;;;;;4731409;30;20502;-75
2023/07/22 00:24:43;;;;;;;4.90;3.40;;;14.00;89.60;;;;;;4715910;30;20286;-75
2023/07/22 00:27:11;;;;;;;4.20;3.80;;;14.10;90.00;;;;;;4714644;30;20206;-75
2023/07/22 00:29:38;;;;;;;5.47;4.17;;;14.00;90.30;;;;;;4730454;30;20513;-76
2023/07/22 00:32:07;;;;;;;8.43;4.53;;;14.00;90.60;;;;;;4762385;30;20535;-75
2023/07/22 00:34:32;;;;;;;7.13;4.40;;;14.00;90.70;;;;;;4766118;30;20429;-75
2023/07/22 00:36:59;;;;;;;6.00;4.63;;;14.00;90.80;;;;;;4782842;30;20525;-74
2023/07/22 00:39:26;;;;;;;7.03;5.60;;;14.00;90.90;;;;;;4763633;30;20555;-75
2023/07/22 00:41:51;;;;;;;6.70;5.00;;;14.00;90.80;;;;;;4739400;30;20447;-74
2023/07/22 00:44:17;;;;;;;7.47;4.40;;;14.10;90.80;;;;;;4729729;30;20196;-75
2023/07/22 00:46:43;;;;;;;5.20;4.30;;;14.10;90.70;;;;;;4759395;30;20220;-76
2023/07/22 00:49:09;;;;;;;3.87;3.47;;;14.10;90.80;;;;;;4760979;29;20206;-74
2023/07/22 00:51:35;;;;;;;5.93;4.30;;;14.00;90.90;;;;;;4785512;30;20550;-75
2023/07/22 00:54:01;;;;;;;6.50;4.77;;;14.00;91.10;;;;;;4886156;24;20496;-75
2023/07/22 00:56:27;;;;;;;8.83;4.33;;;14.00;91.50;;;;;;4784772;30;20231;-76
2023/07/22 00:58:53;;;;;;;5.10;4.47;;;13.90;91.80;;;;;;4772452;30;20226;-75
2023/07/22 01:01:18;;;;;;;4.67;3.80;;;13.90;92.20;;;;;;4803755;29;20210;-75
2023/07/22 01:03:46;;;;;;;4.03;3.40;;;13.90;92.40;;;;;;4805316;29;20222;-75
2023/07/22 01:06:14;;;;;;;4.03;3.23;;;13.80;92.70;;;;;;4785127;30;20183;-75
2023/07/22 01:08:40;;;;;;;6.80;5.57;;;13.80;93.00;;;;;;4803793;30;20905;-74
2023/07/22 01:11:06;;;;;;;4.57;3.90;;;13.80;93.10;;;;;;4803595;30;20823;-75
2023/07/22 01:13:31;;;;;;;5.07;4.20;;;13.80;93.40;;;;;;4800166;30;20420;-73
2023/07/22 01:15:57;;;;;;;5.57;4.30;;;13.90;93.50;;;;;;4799057;29;20241;-75
2023/07/22 01:18:23;;;;;;;5.20;4.30;;;13.90;93.80;;;;;;4799328;29;20207;-74
2023/07/22 01:20:49;;;;;;;5.47;4.70;;;14.00;93.80;;;;;;4816943;29;20462;-76
2023/07/22 01:23:16;;;;;;;9.57;5.70;;;14.00;93.70;;;;;;4817630;29;20202;-75
2023/07/22 01:25:43;;;;;;;6.57;4.37;;;14.10;93.80;;;;;;4816316;29;20248;-75
2023/07/22 01:28:12;;;;;;;4.90;3.83;;;14.00;93.90;;;;;;4818317;29;20427;-76
2023/07/22 01:30:39;;;;;;;5.63;4.23;;;14.00;94.20;;;;;;4803219;29;20986;-75
2023/07/22 01:33:05;;;;;;;5.10;3.90;;;14.00;94.80;;;;;;4815425;29;20420;-76
2023/07/22 01:35:31;;;;;;;5.73;4.67;;;13.90;95.10;;;;;;4798451;30;20570;-77
2023/07/22 01:37:57;;;;;;;7.53;5.50;;;13.90;95.50;;;;;;4801835;30;20481;-74
2023/07/22 01:40:25;;;;;;;7.17;5.20;;;13.90;95.80;;;;;;4797988;29;20611;-75
2023/07/22 01:42:50;;;;;;;5.80;4.83;;;13.90;96.30;;;;;;4784202;30;20186;-76
2023/07/22 01:45:16;;;;;;;5.90;4.87;;;13.90;96.40;;;;;;4798481;30;20496;-74
2023/07/22 01:47:42;;;;;;;6.20;4.40;;;14.00;96.50;;;;;;4798776;30;20226;-73
2023/07/22 01:50:08;;;;;;;6.17;4.87;;;14.10;96.70;;;;;;4799090;30;20214;-74
2023/07/22 01:52:34;;;;;;;6.37;5.53;;;14.20;96.00;;;;;;4800340;29;20206;-77
2023/07/22 01:55:01;;;;;;;5.77;4.70;;;14.30;95.80;;;;;;4805679;29;20440;-76
2023/07/22 01:57:26;;;;;;;12.17;8.10;;;14.40;95.80;;;;;;4819877;29;20496;-75
2023/07/22 01:59:52;;;;;;;8.60;7.53;;;14.40;95.90;;;;;;4801943;29;20483;-75
2023/07/22 02:02:19;;;;;;;7.57;6.33;;;14.50;95.80;;;;;;4800824;30;20278;-75
2023/07/22 02:04:45;;;;;;;10.50;6.27;;;14.40;96.20;;;;;;4817974;29;20261;-76
2023/07/22 02:07:11;;;;;;;8.47;6.27;;;14.40;96.00;;;;;;4788886;30;20445;-77
2023/07/22 02:09:39;;;;;;;7.80;5.73;;;14.40;96.20;;;;;;4807462;30;20427;-74
2023/07/22 02:12:13;;;;;;;12.47;6.07;;;14.40;96.60;;;;;;4788827;30;20428;-74
2023/07/22 02:14:38;;;;;;;7.37;5.00;;;14.40;96.80;;;;;;4802281;29;20816;-75
2023/07/22 02:17:04;;;;;;;5.90;4.97;;;14.30;97.00;;;;;;4816900;29;20243;-74
2023/07/22 02:19:30;;;;;;;6.73;5.63;;;14.30;97.30;;;;;;4818765;29;20310;-73
2023/07/22 02:21:56;;;;;;;5.77;5.10;;;14.20;97.40;;;;;;4804822;29;20446;-74
2023/07/22 02:24:22;;;;;;;5.77;4.90;;;14.20;97.70;;;;;;4797235;30;20206;-74
2023/07/22 02:26:48;;;;;;;6.50;4.47;;;14.10;97.90;;;;;;4779970;30;20195;-74
2023/07/22 02:29:13;;;;;;;5.43;4.43;;;14.00;98.40;;;;;;4789603;29;20420;-73
2023/07/22 02:31:39;;;;;;;6.73;5.23;;;14.00;99.00;;;;;;4788962;30;20188;-76
2023/07/22 02:34:05;;;;;;;6.90;6.20;;;13.90;99.50;;;;;;4766030;30;20282;-73
2023/07/22 02:36:31;;;;;;;7.70;6.37;;;13.80;99.80;;;;;;4766457;30;20508;-74
2023/07/22 02:38:57;;;;;;;7.40;5.60;;;13.80;99.90;;;;;;4787340;29;20427;-73
2023/07/22 02:41:22;;;;;;;7.13;5.80;;;13.70;99.90;;;;;;4770452;30;20200;-74
2023/07/22 02:43:48;;;;;;;8.03;6.27;;;13.70;99.90;;;;;;4781315;30;20192;-74
2023/07/22 02:46:13;;;;;;;6.70;5.50;;;13.70;99.90;;;;;;4799580;29;20191;-73
2023/07/22 02:48:40;;;;;;;7.83;5.83;;;13.70;99.90;;;;;;4783883;30;20206;-74
2023/07/22 02:51:13;;;;;;;6.43;5.33;;;13.70;99.90;;;;;;4816451;29;20290;-74
2023/07/22 02:53:38;;;;;;;5.27;4.67;;;13.70;99.90;;;;;;4815527;29;20592;-75
2023/07/22 02:56:06;;;;;;;7.87;5.60;;;13.70;99.90;;;;;;4784055;30;20480;-75
2023/07/22 02:58:33;;;;;;;7.00;5.23;;;13.70;99.90;;;;;;4790391;30;20195;-73
2023/07/22 03:00:59;;;;;;;9.47;6.17;;;13.70;99.90;;;;;;4798399;29;20493;-73
2023/07/22 03:03:25;;;;;;;6.77;5.13;;;13.80;99.90;;;;;;4784297;29;20423;-75
2023/07/22 03:05:51;;;;;;;6.83;5.50;;;13.80;99.90;;;;;;4805855;29;20440;-76
2023/07/22 03:08:18;;;;;;;5.30;4.50;;;13.90;99.90;;;;;;4801437;29;20512;-74
2023/07/22 03:10:48;;;;;;;4.97;4.13;;;13.90;99.90;;;;;;4764786;30;20479;-74
2023/07/22 03:13:15;;;;;;;7.50;5.40;;;14.00;99.90;;;;;;4814915;29;20423;-74
2023/07/22 03:15:41;;;;;;;7.27;5.63;;;14.00;99.90;;;;;;4817515;29;20480;-74
2023/07/22 03:18:09;;;;;;;6.23;5.00;;;14.00;99.90;;;;;;4817807;29;20412;-75
2023/07/22 03:20:36;;;;;;;6.50;5.47;;;14.00;99.90;;;;;;4798334;29;20222;-74
2023/07/22 03:23:02;;;;;;;6.40;5.30;;;14.00;99.90;;;;;;4796984;30;20443;-75
2023/07/22 03:25:28;;;;;;;5.47;4.07;;;14.00;99.90;;;;;;4799083;29;20441;-73
2023/07/22 03:27:54;;;;;;;9.00;5.17;;;13.90;99.90;;;;;;4782114;30;20213;-75
2023/07/22 03:30:22;;;;;;;7.00;5.00;;;13.90;99.90;;;;;;4797592;29;20222;-73
2023/07/22 03:32:50;;;;;;;5.20;4.70;;;13.90;99.90;;;;;;4796856;30;20420;-74
2023/07/22 03:35:16;;;;;;;4.67;4.10;;;13.80;99.90;;;;;;4791498;29;20444;-73
2023/07/22 03:37:43;;;;;;;5.70;4.17;;;13.80;99.90;;;;;;4813763;29;20492;-73
2023/07/22 03:40:19;;;;;;;5.17;3.43;;;13.90;99.90;;;;;;4805710;29;20456;-75
2023/07/22 03:42:50;;;;;;;7.70;4.90;;;13.80;99.90;;;;;;4803004;29;20552;-75
2023/07/22 03:45:17;;;;;;;7.70;5.37;;;13.80;99.90;;;;;;4791425;30;20430;-74
2023/07/22 03:47:44;;;;;;;5.30;4.43;;;13.80;99.90;;;;;;4780599;30;20565;-75
2023/07/22 03:50:10;;;;;;;6.90;5.67;;;13.80;99.90;;;;;;4780948;30;20441;-74
2023/07/22 03:52:35;;;;;;;6.27;5.03;;;13.80;99.90;;;;;;4795566;30;20455;-74
2023/07/22 03:55:01;;;;;;;5.60;4.80;;;13.80;99.90;;;;;;4782339;30;20226;-73
2023/07/22 03:57:28;;;;;;;5.80;5.10;;;13.80;99.90;;;;;;4802779;29;20217;-73
2023/07/22 03:59:57;;;;;;;6.07;5.17;;;13.80;99.90;;;;;;4794310;30;20884;-74
2023/07/22 04:02:23;;;;;;;5.70;4.60;;;13.70;99.90;;;;;;4791241;29;20438;-73
2023/07/22 04:04:50;;;;;;;4.80;3.93;;;13.80;99.90;;;;;;4812742;29;20419;-73
2023/07/22 04:07:16;;;;;;;7.70;5.27;;;13.70;99.90;;;;;;4800043;29;20431;-74
2023/07/22 04:09:41;;;;;;;6.10;5.00;;;13.70;99.90;;;;;;4779455;30;20444;-75
2023/07/22 04:12:07;;;;;;;6.50;5.23;;;13.80;99.90;;;;;;4785647;30;20225;-73
2023/07/22 04:14:33;;;;;;;5.83;4.90;;;13.80;99.90;;;;;;4813552;29;20201;-74
2023/07/22 04:16:59;;;;;;;5.63;4.37;;;13.80;99.90;;;;;;4814471;29;20597;-73
2023/07/22 04:19:24;;;;;;;5.10;4.30;;;13.80;99.90;;;;;;4814140;29;20222;-73
2023/07/22 04:21:50;;;;;;;5.63;4.53;;;13.90;99.90;;;;;;4815951;29;20201;-74
2023/07/22 04:24:15;;;;;;;5.47;4.07;;;13.90;99.90;;;;;;4814373;29;20194;-74
2023/07/22 04:26:45;;;;;;;6.30;4.33;;;14.00;99.90;;;;;;4796993;29;20268;-74
2023/07/22 04:29:12;;;;;;;5.50;4.00;;;14.10;99.90;;;;;;4795692;30;20233;-74
2023/07/22 04:31:38;;;;;;;6.17;5.23;;;14.10;99.90;;;;;;4810743;29;20431;-74
2023/07/22 04:34:05;;;;;;;5.67;4.60;;;14.20;99.60;;;;;;4812697;29;20713;-74
2023/07/22 04:36:31;;;;;;;4.77;4.27;;;14.30;98.90;;;;;;4814161;29;20757;-74
2023/07/22 04:38:57;;;;;;;6.40;5.37;;;14.40;98.40;;;;;;4814266;29;20412;-74
2023/07/22 04:41:22;;;;;;;6.23;5.43;;;14.40;97.50;;;;;;4776502;30;20206;-74
2023/07/22 04:43:48;;;;;;;5.93;4.80;;;14.50;97.00;;;;;;4801659;30;20187;-74
2023/07/22 04:46:14;;;;;;;4.97;3.77;;;14.60;96.80;;;;;;4799419;29;20538;-74
2023/07/22 04:48:39;;;;;;;8.07;5.37;;;14.60;96.50;;;;;;4780935;30;20583;-75
2023/07/22 04:51:05;;;;;;;7.00;5.23;;;14.70;96.00;;;;;;4802079;29;20223;-74
2023/07/22 04:53:31;;;;;;;6.17;5.10;;;14.70;95.90;;;;;;4783337;29;20249;-74
2023/07/22 04:55:56;;;;;;;5.97;4.40;;;14.70;95.60;;;;;;4804185;29;20238;-74
2023/07/22 04:58:22;;;;;;;5.40;4.07;;;14.70;95.40;;;;;;4794808;29;20191;-74
2023/07/22 05:00:51;;;;;;;5.33;4.83;;;14.80;95.60;;;;;;4807962;29;20235;-73
2023/07/22 05:03:18;;;;;;;5.00;3.80;;;14.80;95.50;;;;;;4815011;29;20591;-74
2023/07/22 05:05:44;;;;;;;5.20;4.40;;;14.90;95.10;;;;;;4798208;29;20519;-75
2023/07/22 05:08:10;;;;;;;6.47;5.30;;;15.00;94.60;;;;;;4802759;29;20487;-75
2023/07/22 05:10:36;;;;;;;4.57;4.10;;;15.20;93.60;;;;;;4773756;29;20223;-74
2023/07/22 05:13:02;;;;;;;9.77;6.50;;;15.30;93.10;;;;;;4813050;29;20432;-74
2023/07/22 05:15:28;;;;;;;6.00;4.60;;;15.60;92.10;;;;;;4787516;30;20464;-75
2023/07/22 05:17:53;;;;;;;5.23;4.33;;;16.10;90.40;;;;;;4798025;29;20230;-75
2023/07/22 05:20:19;;;;;;;5.83;5.03;;;16.60;86.00;;;;;;4797610;29;20214;-74
2023/07/22 05:22:44;;;;;;;5.43;4.77;;;17.10;80.10;;;;;;4796131;29;20207;-74
2023/07/22 05:25:10;;;;;;;5.87;5.00;;;17.40;76.00;;;;;;4794888;30;20195;-74
2023/07/22 05:27:36;;;;;;;5.80;4.80;;;17.70;73.10;;;;;;4799187;29;20196;-75
2023/07/22 05:30:02;;;;;;;6.03;4.80;;;17.80;70.50;;;;;;4798887;29;20229;-74
2023/07/22 05:32:29;;;;;;;5.70;4.60;;;17.80;69.70;;;;;;4791416;29;20198;-75
2023/07/22 05:34:56;;;;;;;5.23;4.73;;;17.70;69.10;;;;;;4805589;29;20424;-74
2023/07/22 05:37:22;;;;;;;8.60;6.40;;;17.60;69.50;;;;;;4816059;29;20497;-75
2023/07/22 05:39:48;;;;;;;8.30;5.63;;;17.50;69.20;;;;;;4798038;29;20464;-74
2023/07/22 05:42:13;;;;;;;5.43;4.93;;;17.60;68.40;;;;;;4787275;30;20498;-74
2023/07/22 05:44:39;;;;;;;9.80;6.33;;;17.60;68.70;;;;;;4798564;30;20208;-75
2023/07/22 05:47:05;;;;;;;7.43;6.33;;;17.60;68.40;;;;;;4800137;29;20204;-74
2023/07/22 05:49:30;;;;;;;7.93;6.97;;;17.60;67.80;;;;;;4799976;30;20245;-76
2023/07/22 05:51:56;;;;;;;6.30;4.97;;;17.90;66.60;;;;;;4798591;30;20251;-74
2023/07/22 05:54:22;;;;;;;7.57;5.93;;;18.30;65.10;;;;;;4794315;29;20242;-75
2023/07/22 05:56:47;;;;;;;9.17;5.93;;;18.70;62.00;;;;;;4782610;30;20210;-75
2023/07/22 05:59:13;;;;;;;6.77;6.00;;;19.10;60.00;;;;;;4795606;29;20204;-74
2023/07/22 06:01:40;;;;;;;6.83;6.13;;;19.40;58.80;;;;;;4805187;29;20226;-74
2023/07/22 06:04:06;;;;;;;6.80;6.20;;;19.70;57.60;;;;;;4770716;30;20199;-74
2023/07/22 06:06:31;;;;;;;10.20;7.90;;;19.80;56.80;;;;;;4815678;29;20430;-75
2023/07/22 06:08:57;;;;;;;6.73;6.03;;;19.60;56.20;;;;;;4790740;29;20190;-73
2023/07/22 06:11:23;;;;;;;8.23;6.83;;;19.40;56.20;;;;;;4802608;29;20262;-75
2023/07/22 06:13:49;;;;;;;7.03;6.33;;;19.30;57.00;;;;;;4784156;30;20202;-77
2023/07/22 06:16:15;;;;;;;7.63;5.50;;;19.30;56.10;;;;;;4800287;29;20214;-75
2023/07/22 06:18:41;;;;;;;7.73;6.70;;;19.00;56.50;;;;;;4802066;29;20421;-75
2023/07/22 06:21:07;;;;;;;6.40;5.80;;;19.00;56.80;;;;;;4802731;29;20444;-75
2023/07/22 06:23:32;;;;;;;5.27;4.77;;;19.20;56.70;;;;;;4802986;29;20239;-76
2023/07/22 06:25:58;;;;;;;7.20;5.13;;;19.30;56.30;;;;;;4802442;29;20194;-75
2023/07/22 06:28:23;;;;;;;7.47;5.60;;;19.40;56.10;;;;;;4773280;29;20190;-75
2023/07/22 06:30:49;;;;;;;7.27;5.50;;;19.60;55.60;;;;;;4819031;29;20298;-75
2023/07/22 06:33:16;;;;;;;8.10;6.57;;;19.90;55.00;;;;;;4801303;29;20198;-74
2023/07/22 06:35:42;;;;;;;8.20;6.60;;;20.20;54.00;;;;;;4816822;29;20468;-73
2023/07/22 06:38:07;;;;;;;7.30;6.60;;;20.60;53.70;;;;;;4802153;29;20477;-75
2023/07/22 06:40:38;;;;;;;8.30;6.17;;;20.90;52.90;;;;;;4805509;29;20698;-75
2023/07/22 06:43:05;;;;;;;6.53;5.83;;;21.00;52.40;;;;;;4799656;30;20453;-76
2023/07/22 06:45:32;;;;;;;8.60;6.23;;;21.00;52.20;;;;;;4809690;29;20431;-75
2023/07/22 06:47:58;;;;;;;7.23;6.50;;;20.90;51.60;;;;;;4801829;29;20523;-74
2023/07/22 06:50:24;;;;;;;7.63;5.50;;;20.70;51.60;;;;;;4785464;30;20460;-74
2023/07/22 06:52:49;;;;;;;7.87;6.07;;;20.60;52.30;;;;;;4790176;30;20202;-75
2023/07/22 06:55:15;;;;;;;14.27;7.33;;;20.50;52.40;;;;;;4794139;30;20666;-76
2023/07/22 06:57:41;;;;;;;8.10;5.40;;;20.40;52.20;;;;;;4783258;30;20218;-75
2023/07/22 07:00:09;;;;;;;4.83;4.40;;;20.20;52.50;;;;;;4787761;30;20211;-76
2023/07/22 07:02:35;;;;;;;6.97;5.87;;;20.20;52.90;;;;;;4755811;30;20284;-76
2023/07/22 07:05:01;;;;;;;6.27;5.67;;;20.30;52.80;;;;;;4816451;29;20410;-75
2023/07/22 07:07:27;;;;;;;7.77;6.93;;;20.30;52.90;;;;;;4798948;30;20436;-75
2023/07/22 07:09:54;;;;;;;5.90;5.30;;;20.40;52.30;;;;;;4785038;30;20656;-76
2023/07/22 07:12:28;;;;;;;5.90;5.30;;;20.50;52.00;;;;;;4775541;30;20264;-77
2023/07/22 07:14:54;;;;;;;9.53;6.20;;;20.50;51.80;;;;;;4789430;30;20511;-79
2023/07/22 07:17:22;;;;;;;6.80;6.10;;;20.50;51.80;;;;;;4774977;30;20470;-76
2023/07/22 07:19:48;;;;;;;8.70;6.53;;;20.40;52.20;;;;;;4770869;30;20489;-75
2023/07/22 07:22:14;;;;;;;8.50;6.93;;;20.50;51.80;;;;;;4787110;30;20422;-76
2023/07/22 07:24:40;;;;;;;6.93;5.53;;;20.50;51.70;;;;;;4769481;30;20213;-76
2023/07/22 07:27:07;;;;;;;8.03;6.07;;;20.60;51.90;;;;;;4752436;30;20531;-75
2023/07/22 07:29:35;;;;;;;6.60;5.17;;;20.70;51.60;;;;;;4759587;30;20327;-74
2023/07/22 07:32:01;;;;;;;6.00;5.20;;;20.70;51.30;;;;;;4788954;30;20406;-74
2023/07/22 07:34:27;;;;;;;4.73;4.23;;;20.90;51.10;;;;;;4772245;30;20505;-76
2023/07/22 07:36:54;;;;;;;6.57;5.87;;;21.00;51.10;;;;;;4770943;30;20311;-75
2023/07/22 07:39:20;;;;;;;6.10;5.40;;;21.10;50.90;;;;;;4792820;29;20207;-77
2023/07/22 07:41:45;;;;;;;7.80;6.13;;;21.10;50.60;;;;;;4810189;29;20435;-75
2023/07/22 07:44:11;;;;;;;8.17;6.67;;;21.20;51.30;;;;;;4823676;29;20246;-75
2023/07/22 07:46:37;;;;;;;7.00;6.40;;;21.30;50.40;;;;;;4824213;29;20467;-76
2023/07/22 07:49:04;;;;;;;6.37;5.77;;;21.30;50.20;;;;;;4798376;30;20534;-76
2023/07/22 07:51:31;;;;;;;6.00;5.47;;;21.50;50.00;;;;;;4791978;30;20437;-75
2023/07/22 07:53:59;;;;;;;5.87;5.37;;;21.60;49.70;;;;;;4806301;30;20492;-78
2023/07/22 07:56:27;;;;;;;7.80;6.53;;;21.70;49.70;;;;;;4792684;30;20480;-75
2023/07/22 07:58:54;;;;;;;6.13;5.50;;;21.80;49.60;;;;;;4793777;30;20409;-76
2023/07/22 08:01:22;;;;;;;6.53;5.33;;;21.90;49.40;;;;;;4793374;30;20437;-76
2023/07/22 08:03:51;;;;;;;8.00;6.30;;;22.00;49.00;;;;;;4807498;30;20455;-75
2023/07/22 08:06:18;;;;;;;7.17;6.13;;;22.00;48.90;;;;;;4791127;30;20417;-76
2023/07/22 08:08:44;;;;;;;8.50;7.30;;;22.10;49.00;;;;;;4807822;30;20493;-75
2023/07/22 08:11:13;;;;;;;10.03;8.27;;;22.10;48.70;;;;;;4914540;24;20308;-76
2023/07/22 08:13:42;;;;;;;10.10;7.60;;;22.10;48.60;;;;;;4831819;29;20181;-76
2023/07/22 08:16:12;;;;;;;9.60;8.70;;;22.00;48.80;;;;;;4833334;29;20462;-76
2023/07/22 08:18:38;;;;;;;7.10;6.37;;;21.90;48.60;;;;;;4829176;29;20423;-76
2023/07/22 08:21:09;;;;;;;7.37;5.97;;;22.00;48.50;;;;;;4829769;29;20443;-76
2023/07/22 08:23:36;;;;;;;6.90;5.87;;;22.00;48.10;;;;;;4829254;29;20415;-77
2023/07/22 08:26:07;;;;;;;7.17;5.80;;;22.00;48.20;;;;;;4847484;29;20402;-76
2023/07/22 08:28:35;;;;;;;7.27;6.47;;;22.00;47.80;;;;;;4817382;29;20442;-75
2023/07/22 08:31:02;;;;;;;8.10;6.37;;;21.90;47.90;;;;;;4838736;24;20519;-76
2023/07/22 08:33:28;;;;;;;9.80;6.20;;;21.80;48.20;;;;;;4781487;29;20436;-75
2023/07/22 08:36:02;;;;;;;7.37;6.00;;;21.70;48.10;;;;;;4796382;29;20521;-75
2023/07/22 08:38:32;;;;;;;6.97;6.23;;;21.70;48.20;;;;;;4810729;29;20826;-79
2023/07/22 08:41:02;;;;;;;8.70;6.97;;;21.80;48.30;;;;;;4811508;29;20492;-75
2023/07/22 08:43:30;;;;;;;6.80;5.87;;;21.80;47.60;;;;;;4789625;30;20461;-78
2023/07/22 08:46:01;;;;;;;6.43;5.20;;;21.70;47.80;;;;;;4789750;29;20430;-76
2023/07/22 08:48:32;;;;;;;5.63;5.13;;;21.80;47.50;;;;;;4760223;30;20472;-78
2023/07/22 08:51:06;;;;;;;4.93;4.03;;;22.00;47.60;;;;;;4761032;30;20477;-77
2023/07/22 08:53:35;;;;;;;7.17;5.77;;;22.20;47.00;;;;;;4722284;30;20444;-78
2023/07/22 08:56:26;;;;;;;6.10;4.60;;;22.30;46.60;;;;;;4722634;30;20484;-76
2023/07/22 08:59:14;;;;;;;4.60;4.20;;;22.30;46.60;;;;;;4691543;30;20516;-77
2023/07/22 09:02:15;;;;;;;5.70;4.60;;;22.40;46.50;;;;;;4691544;30;20439;-77
2023/07/22 09:04:42;;;;;;;5.50;4.60;;;22.50;46.20;;;;;;4705708;30;20409;-77
2023/07/22 09:07:16;;;;;;;6.00;5.50;;;22.40;45.20;;;;;;4687490;30;20435;-77
2023/07/22 09:09:46;;;;;;;6.47;5.00;;;22.40;45.60;;;;;;4723099;30;20471;-77
2023/07/22 09:12:17;;;;;;;4.70;4.20;;;22.10;46.00;;;;;;4723914;30;20426;-78
2023/07/22 09:14:46;;;;;;;4.23;3.83;;;22.30;45.80;;;;;;4720230;30;20487;-77
2023/07/22 09:17:18;;;;;;;4.27;3.87;;;22.40;45.30;;;;;;4726398;30;20522;-77
2023/07/22 09:19:45;;;;;;;7.17;4.47;;;22.60;45.20;;;;;;4869071;24;20850;-76
2023/07/22 09:22:11;;;;;;;5.60;5.10;;;22.70;44.80;;;;;;4800743;29;20440;-77
2023/07/22 09:24:39;;;;;;;5.87;4.27;;;22.80;44.80;;;;;;4815106;29;20450;-76
2023/07/22 09:27:14;;;;;;;6.20;4.90;;;23.00;44.70;;;;;;4786447;29;20428;-77
2023/07/22 09:30:00;;;;;;;5.23;4.73;;;23.10;44.50;;;;;;5153968;24;20502;-76
2023/07/22 09:32:37;;;;;;;5.60;5.10;;;23.20;43.80;;;;;;4832923;29;20561;-78
2023/07/22 09:35:07;;;;;;;4.43;4.03;;;23.40;43.40;;;;;;4818118;29;20488;-78
2023/07/22 09:37:50;;;;;;;5.20;4.70;;;23.60;43.50;;;;;;4779357;30;20457;-78
2023/07/22 09:40:21;;;;;;;4.57;4.17;;;23.90;42.90;;;;;;4780460;30;20529;-78
2023/07/22 09:43:12;;;;;;;6.90;5.13;;;24.10;42.70;;;;;;4790484;29;20446;-77
2023/07/22 09:46:11;;;;;;;4.57;4.10;;;24.10;42.60;;;;;;4619964;27;20522;-75
2023/07/22 09:48:49;;;;;;;6.60;4.90;;;24.20;42.40;;;;;;4816786;29;20427;-79
2023/07/22 10:08:56;;;;;;;3.83;2.87;;;24.00;40.10;;;;;;4962260;24;20474;-77
2023/07/22 10:11:29;;;;;;;4.60;4.13;;;24.20;39.60;;;;;;4830663;29;20458;-79
2023/07/22 10:14:39;;;;;;;7.17;3.40;;;24.40;38.70;;;;;;5454586;24;20463;-78
2023/07/22 10:17:21;;;;;;;4.37;3.63;;;24.20;37.30;;;;;;4786720;29;20475;-78
2023/07/22 10:19:51;;;;;;;3.67;2.80;;;24.10;37.30;;;;;;4922450;24;20487;-79
2023/07/22 10:22:49;;;;;;;4.20;3.40;;;23.70;37.50;;;;;;4802317;29;20383;-79
2023/07/22 10:25:45;;;;;;;3.27;2.40;;;23.60;38.10;;;;;;4816017;29;20531;-78
2023/07/22 10:28:31;;;;;;;3.13;2.83;;;23.90;38.10;;;;;;4789602;29;20443;-78
2023/07/22 10:31:09;;;;;;;4.27;3.80;;;24.40;37.30;;;;;;4814925;29;20456;-78
2023/07/22 10:41:57;;;;;;;3.80;2.80;;;24.70;36.20;;;;;;4325056;24;20490;-78
2023/07/22 10:44:43;;;;;;;3.67;3.37;;;24.90;36.20;;;;;;4818009;29;20423;-78
2023/07/22 12:12:09;;;;;;;2.73;2.53;;;25.10;34.90;;;;;;4860408;24;20504;-78
2023/07/22 18:48:56;;;;;;;5.43;3.80;;;22.70;42.70;;;;;;5273337;24;20480;-79
2023/07/22 19:46:52;;;;;;;7.10;3.93;;;21.40;47.10;;;;;;4567968;24;20495;-80
2023/07/22 20:22:57;;;;;;;6.27;5.30;;;20.90;48.50;;;;;;4904458;24;20931;-80
2023/07/22 20:39:31;;;;;;;4.20;3.77;;;20.70;48.80;;;;;;5558939;24;20481;-79
2023/07/22 22:21:35;;;;;;;4.13;2.83;;;20.30;50.90;;;;;;5200684;24;20485;-77
2023/07/22 22:24:36;;;;;;;4.43;4.03;;;20.30;51.20;;;;;;4790205;30;20408;-79
2023/07/22 22:27:25;;;;;;;4.50;3.37;;;20.30;51.50;;;;;;4759787;30;20494;-78
2023/07/22 22:30:07;;;;;;;6.13;3.60;;;20.30;51.70;;;;;;4726811;30;20448;-78
2023/07/22 22:32:36;;;;;;;8.00;4.87;;;20.30;52.00;;;;;;4725540;30;20520;-78
2023/07/22 22:35:06;;;;;;;4.93;4.30;;;20.30;52.30;;;;;;4712978;30;20444;-79
2023/07/22 22:37:32;;;;;;;5.80;4.47;;;20.30;52.50;;;;;;4710004;30;20476;-78
2023/07/22 22:45:36;;;;;;;3.73;3.30;;;20.20;53.00;;;;;;5335439;24;20499;-76
2023/07/22 22:48:03;;;;;;;5.57;3.40;;;20.20;53.20;;;;;;4753137;30;20470;-79
2023/07/22 22:50:33;;;;;;;4.60;3.73;;;20.20;53.40;;;;;;4711211;30;20490;-78
2023/07/22 22:53:00;;;;;;;5.10;3.20;;;20.20;53.70;;;;;;4740489;30;20419;-76
2023/07/22 22:55:26;;;;;;;5.03;3.07;;;20.20;53.80;;;;;;4740083;30;20447;-76
2023/07/22 22:57:52;;;;;;;4.40;3.77;;;20.10;54.00;;;;;;4727071;30;20459;-78
2023/07/22 23:00:27;;;;;;;4.63;3.87;;;20.20;54.10;;;;;;4725912;30;20439;-79
2023/07/22 23:03:01;;;;;;;6.87;4.47;;;20.20;54.20;;;;;;4742226;30;20407;-79
2023/07/22 23:05:29;;;;;;;4.07;3.37;;;20.10;54.30;;;;;;4711513;30;20424;-77
2023/07/22 23:07:58;;;;;;;3.93;3.23;;;20.10;54.20;;;;;;4740698;30;20427;-79
2023/07/22 23:13:47;;;;;;;3.70;2.90;;;20.10;54.00;;;;;;5047606;24;20459;-77
2023/07/22 23:16:16;;;;;;;4.90;4.20;;;20.10;53.90;;;;;;4757648;30;20454;-77
2023/07/22 23:18:44;;;;;;;6.03;3.80;;;20.10;53.80;;;;;;4753007;30;20438;-77
2023/07/22 23:21:16;;;;;;;4.07;3.20;;;20.10;53.60;;;;;;4739363;30;20443;-78
2023/07/22 23:23:46;;;;;;;4.03;3.60;;;20.10;53.30;;;;;;4743425;30;20442;-77
2023/07/22 23:26:14;;;;;;;4.83;3.70;;;20.10;53.00;;;;;;4738931;30;20424;-77
2023/07/22 23:28:49;;;;;;;5.70;3.90;;;20.10;52.90;;;;;;4739446;30;20437;-77
2023/07/22 23:31:16;;;;;;;4.03;3.20;;;20.10;52.70;;;;;;5010826;24;20496;-76
2023/07/22 23:33:42;;;;;;;5.70;4.00;;;20.10;52.70;;;;;;4794585;29;20444;-76
2023/07/22 23:36:10;;;;;;;3.90;3.40;;;20.00;52.90;;;;;;4808675;29;20491;-77
2023/07/22 23:38:36;;;;;;;4.10;3.70;;;19.90;53.10;;;;;;4825102;29;20463;-77
2023/07/22 23:41:08;;;;;;;3.63;3.23;;;19.90;53.40;;;;;;4796168;30;20461;-76
2023/07/22 23:43:36;;;;;;;7.90;4.90;;;19.90;53.70;;;;;;4793515;30;20433;-76
2023/07/22 23:46:02;;;;;;;4.57;4.17;;;19.80;53.60;;;;;;4779937;30;20531;-77
2023/07/22 23:48:34;;;;;;;4.93;3.90;;;19.80;53.60;;;;;;4750683;30;20426;-77
2023/07/22 23:51:01;;;;;;;4.70;3.70;;;19.80;53.40;;;;;;4731723;30;20457;-77
2023/07/22 23:53:27;;;;;;;4.60;4.10;;;19.90;53.40;;;;;;4737727;30;20440;-77
2023/07/22 23:55:54;;;;;;;4.20;3.80;;;19.80;53.30;;;;;;4745414;30;20246;-76
2023/07/22 23:58:20;;;;;;;5.00;4.30;;;19.80;53.70;;;;;;4730472;30;20196;-79
